Time;durP1;ratioP1;P1;durP2;ratioP2;P2;SDS_P1;SDS_P2;PMS_P1;PMS_P2;Temp;Humidity;BMP_temperature;BMP_pressure;BME280_temperature;BME280_humidity;BME280_pressure;Samples;Min_cycle;Max_cycle;Signal;HPM_P1;HPM_P2
2022/04/30 00:01:40;;;;;;;16.23;14.70;;;11.30;99.90;;;;;;4892819;29;20660;-96
2022/04/30 00:04:06;;;;;;;16.00;14.50;;;11.30;99.90;;;;;;4886236;29;20484;-94
2022/04/30 00:06:31;;;;;;;14.93;13.63;;;11.40;99.90;;;;;;4908880;29;21029;-95
2022/04/30 00:09:04;;;;;;;15.10;13.70;;;11.10;99.90;;;;;;4904722;29;20189;-94
2022/04/30 00:11:30;;;;;;;13.70;12.50;;;11.10;99.90;;;;;;4876541;29;20319;-94
2022/04/30 00:13:56;;;;;;;13.57;12.30;;;11.00;99.90;;;;;;4888792;29;20448;-94
2022/04/30 00:16:21;;;;;;;13.17;12.13;;;11.00;99.90;;;;;;4904584;29;20296;-94
2022/04/30 00:18:47;;;;;;;14.03;12.73;;;11.00;99.90;;;;;;4882827;29;20193;-94
2022/04/30 00:21:15;;;;;;;14.10;12.70;;;11.00;99.90;;;;;;4893377;29;20196;-93
2022/04/30 00:23:40;;;;;;;15.00;13.67;;;11.00;99.90;;;;;;4882527;29;20391;-94
2022/04/30 00:26:08;;;;;;;13.90;12.40;;;11.00;99.90;;;;;;4901865;29;20444;-95
2022/04/30 00:28:34;;;;;;;14.40;13.20;;;11.30;99.90;;;;;;4885739;29;20237;-93
2022/04/30 00:31:00;;;;;;;14.17;12.87;;;11.20;99.90;;;;;;4911019;28;20499;-93
2022/04/30 00:33:25;;;;;;;13.57;12.23;;;11.20;99.90;;;;;;4895518;29;20212;-93
2022/04/30 00:35:52;;;;;;;14.40;13.10;;;11.20;99.90;;;;;;4919354;29;20188;-92
2022/04/30 00:38:17;;;;;;;14.80;13.50;;;11.20;99.90;;;;;;4905892;29;20192;-96
2022/04/30 00:40:43;;;;;;;12.70;11.63;;;11.30;99.90;;;;;;4899947;29;20444;-94
2022/04/30 00:43:09;;;;;;;12.77;11.70;;;11.20;99.90;;;;;;4898539;29;20525;-93
2022/04/30 00:45:34;;;;;;;12.10;11.10;;;11.10;99.90;;;;;;4904272;29;20439;-93
2022/04/30 00:48:00;;;;;;;11.30;10.40;;;11.20;99.90;;;;;;4905854;29;20200;-95
2022/04/30 00:50:28;;;;;;;11.73;10.83;;;11.20;99.90;;;;;;4900418;29;20687;-94
2022/04/30 00:52:58;;;;;;;12.43;11.17;;;11.20;99.90;;;;;;4907530;29;20559;-94
2022/04/30 00:55:29;;;;;;;11.37;10.37;;;11.10;99.90;;;;;;4906881;29;20440;-95
2022/04/30 00:58:00;;;;;;;11.80;10.80;;;11.00;99.90;;;;;;4907630;29;20515;-94
2022/04/30 01:00:27;;;;;;;11.63;10.80;;;10.90;99.90;;;;;;4905357;29;20449;-95
2022/04/30 01:02:52;;;;;;;11.13;10.23;;;10.90;99.90;;;;;;4898603;29;20537;-93
2022/04/30 01:05:20;;;;;;;12.60;11.40;;;10.90;99.90;;;;;;4899926;29;20432;-92
2022/04/30 01:07:58;;;;;;;12.00;10.90;;;10.70;99.90;;;;;;4906518;29;20192;-92
2022/04/30 01:10:24;;;;;;;13.33;12.13;;;10.50;99.90;;;;;;4900286;29;20455;-93
2022/04/30 01:12:50;;;;;;;14.20;12.80;;;10.60;99.90;;;;;;4885301;29;20449;-93
2022/04/30 01:15:16;;;;;;;13.10;12.00;;;10.70;99.90;;;;;;4883124;29;20591;-94
2022/04/30 01:17:42;;;;;;;14.17;12.83;;;10.70;99.90;;;;;;4883549;29;20468;-93
2022/04/30 01:20:12;;;;;;;13.17;11.97;;;10.70;99.90;;;;;;4876081;29;20476;-93
2022/04/30 01:23:04;;;;;;;13.40;12.20;;;10.80;99.90;;;;;;4891935;29;20487;-94
2022/04/30 01:25:31;;;;;;;13.37;12.30;;;10.90;99.90;;;;;;4890729;29;20476;-93
2022/04/30 01:27:59;;;;;;;13.50;12.20;;;10.90;99.90;;;;;;4901221;29;20544;-92
2022/04/30 01:30:25;;;;;;;14.03;12.37;;;10.90;99.90;;;;;;4896964;29;20439;-93
2022/04/30 01:38:32;;;;;;;13.30;12.10;;;11.00;99.90;;;;;;4886217;29;20583;-92
2022/04/30 01:40:58;;;;;;;15.40;14.00;;;11.00;99.90;;;;;;4894425;29;20535;-94
2022/04/30 01:43:25;;;;;;;14.07;12.87;;;11.00;99.90;;;;;;4903299;29;20598;-92
2022/04/30 01:45:52;;;;;;;13.93;12.73;;;10.90;99.90;;;;;;4883815;29;20524;-93
2022/04/30 01:48:19;;;;;;;14.20;13.03;;;10.80;99.90;;;;;;4885371;29;20539;-93
2022/04/30 01:50:44;;;;;;;14.33;13.13;;;10.80;99.90;;;;;;4889751;29;20448;-93
2022/04/30 01:53:10;;;;;;;15.33;13.07;;;10.90;99.90;;;;;;4885629;29;20516;-92
2022/04/30 01:55:37;;;;;;;14.60;13.20;;;11.00;99.90;;;;;;4900955;29;20188;-91
2022/04/30 01:58:03;;;;;;;14.40;13.03;;;11.10;99.90;;;;;;4895305;29;20312;-92
2022/04/30 02:00:29;;;;;;;15.17;13.67;;;11.30;99.90;;;;;;4889476;29;20538;-91
2022/04/30 02:03:00;;;;;;;13.97;12.57;;;11.40;99.90;;;;;;4896739;29;20489;-93
2022/04/30 02:05:26;;;;;;;17.00;15.20;;;11.50;99.90;;;;;;4896964;29;20441;-91
2022/04/30 02:08:03;;;;;;;16.27;14.67;;;11.50;99.90;;;;;;4887115;29;20465;-91
2022/04/30 02:10:30;;;;;;;17.83;16.00;;;11.60;99.90;;;;;;4882340;29;20440;-91
2022/04/30 02:12:56;;;;;;;17.90;15.00;;;11.50;99.90;;;;;;4880739;29;20772;-91
2022/04/30 02:15:23;;;;;;;16.90;15.13;;;11.60;99.90;;;;;;4875810;29;21780;-91
2022/04/30 02:17:50;;;;;;;16.60;14.90;;;11.60;99.90;;;;;;4878583;29;20513;-93
2022/04/30 02:20:24;;;;;;;17.20;15.13;;;11.70;99.90;;;;;;4881592;29;20511;-92
2022/04/30 02:22:51;;;;;;;16.03;14.40;;;11.80;99.90;;;;;;4888933;29;20486;-93
2022/04/30 02:25:18;;;;;;;15.77;14.30;;;11.80;99.90;;;;;;4878608;29;20444;-93
2022/04/30 02:27:45;;;;;;;16.03;14.43;;;11.80;99.90;;;;;;4902980;29;20813;-92
2022/04/30 02:30:14;;;;;;;18.00;14.67;;;11.80;99.90;;;;;;4881704;29;20436;-93
2022/04/30 02:33:03;;;;;;;18.13;16.27;;;11.80;99.90;;;;;;4884045;29;20475;-92
2022/04/30 02:35:30;;;;;;;19.63;16.60;;;11.80;99.90;;;;;;4881317;29;20901;-95
2022/04/30 02:37:59;;;;;;;21.33;16.00;;;11.80;99.90;;;;;;4903373;29;20500;-94
2022/04/30 02:40:26;;;;;;;19.47;16.30;;;11.80;99.90;;;;;;4900693;29;20535;-93
2022/04/30 02:42:53;;;;;;;18.77;16.20;;;11.80;99.90;;;;;;4888983;29;20488;-93
2022/04/30 02:45:20;;;;;;;19.93;16.90;;;11.80;99.90;;;;;;4882783;29;20450;-93
2022/04/30 02:47:56;;;;;;;18.97;17.00;;;11.80;99.90;;;;;;4887546;29;21054;-95
2022/04/30 02:50:25;;;;;;;21.10;17.57;;;11.80;99.90;;;;;;4878171;29;20433;-96
2022/04/30 02:52:55;;;;;;;26.00;19.03;;;11.80;99.90;;;;;;4898417;29;20479;-94
2022/04/30 02:55:23;;;;;;;24.47;18.17;;;11.80;99.90;;;;;;4898456;29;20504;-96
2022/04/30 03:00:39;;;;;;;22.30;18.43;;;11.70;99.90;;;;;;4892509;29;20680;-94
2022/04/30 03:03:07;;;;;;;22.00;16.93;;;11.70;99.90;;;;;;4901234;29;20527;-94
2022/04/30 03:05:35;;;;;;;19.77;17.30;;;11.60;99.90;;;;;;4878075;29;20461;-94
2022/04/30 03:08:04;;;;;;;23.40;18.77;;;11.70;99.90;;;;;;4882635;29;21038;-94
2022/04/30 03:10:30;;;;;;;21.97;18.07;;;11.70;99.90;;;;;;4900160;29;21822;-96
2022/04/30 03:12:57;;;;;;;21.73;18.77;;;11.70;99.90;;;;;;4885444;29;20444;-96
2022/04/30 03:15:30;;;;;;;24.77;18.53;;;11.70;99.90;;;;;;4883030;29;20332;-94
2022/04/30 03:23:24;;;;;;;25.23;18.40;;;11.50;99.90;;;;;;4888638;29;20952;-94
2022/04/30 03:25:50;;;;;;;19.57;16.90;;;11.40;99.90;;;;;;4887171;29;20474;-95
2022/04/30 03:28:15;;;;;;;22.53;17.67;;;11.40;99.90;;;;;;4885686;29;20196;-94
2022/04/30 03:30:41;;;;;;;22.83;17.60;;;11.40;99.90;;;;;;4886853;29;21532;-93
2022/04/30 03:33:32;;;;;;;21.27;17.63;;;11.50;99.90;;;;;;4883839;29;20959;-95
2022/04/30 03:35:59;;;;;;;19.60;16.83;;;11.40;99.90;;;;;;4885497;29;20441;-94
2022/04/30 03:38:25;;;;;;;21.67;17.10;;;11.50;99.90;;;;;;4885171;29;20448;-93
2022/04/30 03:40:51;;;;;;;18.33;16.30;;;11.60;99.90;;;;;;4882052;29;20452;-93
2022/04/30 03:43:22;;;;;;;20.80;17.33;;;11.60;99.90;;;;;;4885644;29;20506;-95
2022/04/30 03:45:50;;;;;;;21.57;17.20;;;11.50;99.90;;;;;;4881210;29;20809;-94
2022/04/30 03:48:19;;;;;;;18.50;16.37;;;11.50;99.90;;;;;;4888255;29;20487;-93
2022/04/30 03:50:44;;;;;;;18.70;16.80;;;11.50;99.90;;;;;;4896278;29;20503;-94
2022/04/30 03:53:10;;;;;;;20.50;17.50;;;11.40;99.90;;;;;;4882237;29;20445;-94
2022/04/30 03:55:36;;;;;;;18.30;16.47;;;11.30;99.90;;;;;;4892556;29;20188;-93
2022/04/30 03:58:01;;;;;;;17.97;16.07;;;11.30;99.90;;;;;;4891108;29;20207;-94
2022/04/30 04:00:33;;;;;;;18.20;16.20;;;11.30;99.90;;;;;;4896915;29;20184;-95
2022/04/30 04:03:06;;;;;;;19.07;17.07;;;11.30;99.90;;;;;;4891991;29;20219;-96
2022/04/30 04:05:49;;;;;;;19.30;17.30;;;11.30;99.90;;;;;;4904690;29;20458;-96
2022/04/30 04:08:20;;;;;;;19.30;17.20;;;11.40;99.90;;;;;;4907446;29;20189;-96
2022/04/30 04:10:46;;;;;;;23.73;17.43;;;11.30;99.90;;;;;;4899102;29;20451;-95
2022/04/30 04:18:51;;;;;;;23.40;18.50;;;11.30;99.90;;;;;;4890298;29;20443;-96
2022/04/30 04:21:18;;;;;;;25.43;19.13;;;11.10;99.90;;;;;;4888901;29;20444;-96
2022/04/30 04:26:37;;;;;;;23.97;19.67;;;11.30;99.90;;;;;;4889718;29;20459;-94
2022/04/30 04:29:02;;;;;;;26.50;20.40;;;11.20;99.90;;;;;;4896390;29;20448;-96
2022/04/30 04:31:28;;;;;;;25.23;19.53;;;11.20;99.90;;;;;;4899141;29;20449;-94
2022/04/30 04:33:53;;;;;;;25.53;20.27;;;11.20;99.90;;;;;;4893895;29;20205;-95
2022/04/30 04:36:19;;;;;;;29.43;20.10;;;11.20;99.90;;;;;;4888834;29;20197;-95
2022/04/30 04:38:45;;;;;;;24.80;19.20;;;11.30;99.90;;;;;;4895711;29;20271;-95
2022/04/30 04:41:10;;;;;;;24.87;22.07;;;11.40;99.90;;;;;;4895660;29;20212;-93
2022/04/30 04:43:38;;;;;;;26.50;20.13;;;11.30;99.90;;;;;;4890255;29;20242;-89
2022/04/30 04:46:04;;;;;;;28.77;20.93;;;11.60;99.90;;;;;;4893895;29;20248;-89
2022/04/30 04:48:30;;;;;;;24.40;20.03;;;11.20;99.90;;;;;;4886105;29;21126;-90
2022/04/30 04:50:56;;;;;;;24.27;20.93;;;11.20;99.90;;;;;;4892663;29;20463;-96
2022/04/30 04:53:21;;;;;;;23.50;19.07;;;11.30;99.90;;;;;;4916132;29;20478;-94
2022/04/30 04:55:47;;;;;;;27.47;21.20;;;11.30;99.90;;;;;;4895713;29;20458;-94
2022/04/30 04:58:13;;;;;;;27.83;20.57;;;11.40;99.90;;;;;;4897110;29;20894;-94
2022/04/30 05:00:39;;;;;;;27.60;21.63;;;11.40;99.90;;;;;;4909391;29;20189;-96
2022/04/30 05:03:05;;;;;;;24.67;21.00;;;11.40;99.90;;;;;;4912839;29;20499;-92
2022/04/30 05:05:33;;;;;;;29.73;22.23;;;11.30;99.90;;;;;;4909571;29;20717;-92
2022/04/30 05:08:15;;;;;;;28.67;21.70;;;11.20;99.90;;;;;;4906814;29;20225;-92
2022/04/30 05:10:40;;;;;;;30.20;23.90;;;11.20;99.90;;;;;;4906029;29;20797;-92
2022/04/30 05:13:06;;;;;;;28.50;23.03;;;11.20;99.90;;;;;;4907488;29;20452;-94
2022/04/30 05:15:34;;;;;;;32.03;24.67;;;11.20;99.90;;;;;;4916163;29;20189;-93
2022/04/30 05:18:05;;;;;;;30.13;23.20;;;11.10;99.90;;;;;;4911026;29;21133;-93
2022/04/30 05:20:37;;;;;;;29.67;23.80;;;11.10;99.90;;;;;;4908256;29;20476;-94
2022/04/30 05:23:05;;;;;;;29.77;24.60;;;11.20;99.90;;;;;;4909113;29;20491;-93
2022/04/30 05:25:31;;;;;;;30.23;23.00;;;11.20;99.90;;;;;;4921983;28;20448;-94
2022/04/30 05:27:57;;;;;;;30.20;23.70;;;11.10;99.90;;;;;;4896566;29;21017;-92
2022/04/30 05:30:23;;;;;;;29.60;23.17;;;11.10;99.90;;;;;;4900927;29;20451;-94
2022/04/30 05:32:51;;;;;;;31.00;23.03;;;11.00;99.90;;;;;;4887235;29;20224;-94
2022/04/30 05:35:18;;;;;;;28.60;24.37;;;11.20;99.90;;;;;;4884236;29;20503;-94
2022/04/30 05:37:43;;;;;;;28.43;22.50;;;11.40;99.90;;;;;;4880224;29;20444;-96
2022/04/30 05:40:09;;;;;;;32.70;24.07;;;11.30;99.90;;;;;;4880493;29;20475;-94
2022/04/30 05:42:35;;;;;;;35.30;24.40;;;11.30;99.90;;;;;;4879467;29;20856;-96
2022/04/30 05:45:01;;;;;;;29.67;23.20;;;11.30;99.90;;;;;;4883629;29;20995;-93
2022/04/30 05:47:26;;;;;;;26.40;23.50;;;11.40;99.90;;;;;;4881130;29;20577;-93
2022/04/30 05:49:52;;;;;;;30.93;23.50;;;11.40;99.90;;;;;;4909001;29;21517;-95
2022/04/30 05:52:19;;;;;;;29.23;22.67;;;11.40;99.90;;;;;;4894126;29;20188;-93
2022/04/30 05:54:49;;;;;;;28.83;22.87;;;11.50;99.90;;;;;;4909761;29;20267;-93
2022/04/30 05:57:15;;;;;;;27.43;21.67;;;11.50;99.90;;;;;;4888842;29;20467;-92
2022/04/30 05:59:41;;;;;;;27.20;22.17;;;11.90;99.90;;;;;;4893710;29;20900;-94
2022/04/30 06:02:10;;;;;;;25.73;21.87;;;11.70;99.90;;;;;;4888857;29;20197;-96
2022/04/30 06:04:42;;;;;;;29.07;23.17;;;11.40;99.90;;;;;;4917826;29;20240;-96
2022/04/30 06:07:08;;;;;;;26.30;21.93;;;11.50;99.90;;;;;;4905348;29;20436;-96
2022/04/30 06:09:35;;;;;;;31.53;23.00;;;11.80;99.90;;;;;;4901703;29;20577;-95
2022/04/30 06:12:01;;;;;;;28.40;23.03;;;11.80;99.90;;;;;;4894541;29;20189;-96
2022/04/30 06:14:35;;;;;;;33.30;25.67;;;11.40;99.90;;;;;;4903519;29;21231;-95
2022/04/30 06:17:05;;;;;;;30.83;24.33;;;11.40;99.90;;;;;;4884219;29;20216;-93
2022/04/30 06:19:31;;;;;;;33.50;25.67;;;11.50;99.90;;;;;;4876802;29;20532;-90
2022/04/30 06:21:56;;;;;;;30.17;23.83;;;11.60;99.90;;;;;;4877873;29;20449;-90
2022/04/30 06:24:22;;;;;;;28.53;23.20;;;11.40;99.90;;;;;;4870126;29;21416;-93
2022/04/30 06:26:48;;;;;;;34.87;23.97;;;11.60;99.90;;;;;;4890733;29;20439;-91
2022/04/30 06:29:13;;;;;;;27.93;22.60;;;12.00;99.90;;;;;;4858830;29;20642;-89
2022/04/30 06:31:40;;;;;;;27.60;22.20;;;11.80;99.90;;;;;;4871031;29;20272;-89
2022/04/30 06:34:06;;;;;;;29.10;22.43;;;11.80;99.90;;;;;;4851799;29;20201;-86
2022/04/30 06:36:43;;;;;;;27.97;23.83;;;11.60;99.90;;;;;;4864190;29;20453;-95
2022/04/30 06:39:09;;;;;;;29.73;23.47;;;11.50;99.90;;;;;;4879615;29;20476;-94
2022/04/30 06:41:35;;;;;;;32.30;23.70;;;11.50;99.90;;;;;;4863764;29;20530;-91
2022/04/30 06:44:03;;;;;;;28.80;23.37;;;11.60;99.90;;;;;;4864791;29;20489;-93
2022/04/30 06:46:32;;;;;;;26.97;21.67;;;11.80;99.90;;;;;;4862817;29;20450;-89
2022/04/30 06:49:00;;;;;;;30.43;22.67;;;11.60;99.90;;;;;;4866364;29;20453;-95
2022/04/30 06:51:25;;;;;;;30.07;24.27;;;11.70;99.90;;;;;;4873562;29;20186;-91
2022/04/30 06:59:44;;;;;;;30.00;23.60;;;11.60;99.90;;;;;;4891676;29;20446;-96
2022/04/30 07:30:35;;;;;;;26.33;21.17;;;12.00;99.90;;;;;;4863559;29;20488;-92
2022/04/30 07:33:06;;;;;;;23.23;20.50;;;12.00;99.90;;;;;;4867963;29;20488;-90
2022/04/30 07:35:32;;;;;;;24.67;22.10;;;12.10;99.90;;;;;;4871868;29;20467;-90
2022/04/30 07:37:58;;;;;;;27.47;23.13;;;12.20;99.90;;;;;;4879198;29;20448;-91
2022/04/30 07:40:24;;;;;;;33.90;24.80;;;12.30;99.90;;;;;;4871945;29;20330;-92
2022/04/30 07:42:50;;;;;;;30.27;24.00;;;12.40;99.90;;;;;;4881776;29;20232;-93
2022/04/30 07:45:16;;;;;;;39.57;26.87;;;12.50;99.90;;;;;;4877473;29;20498;-92
2022/04/30 07:47:42;;;;;;;25.53;22.03;;;12.50;99.90;;;;;;4868934;29;20247;-93
2022/04/30 07:50:08;;;;;;;31.87;23.87;;;12.70;99.90;;;;;;4882709;29;20212;-93
2022/04/30 07:52:34;;;;;;;34.30;26.20;;;12.60;99.90;;;;;;4887501;29;20192;-93
2022/04/30 07:55:03;;;;;;;32.37;25.20;;;12.40;99.90;;;;;;4868497;29;20452;-92
2022/04/30 07:57:32;;;;;;;29.93;23.80;;;12.30;99.90;;;;;;4865254;29;20656;-91
2022/04/30 07:59:58;;;;;;;39.67;26.43;;;12.30;99.90;;;;;;4889306;29;20472;-91
2022/04/30 08:02:26;;;;;;;32.80;24.83;;;12.50;99.90;;;;;;4876729;29;20479;-92
2022/04/30 08:04:52;;;;;;;45.10;28.10;;;12.50;99.90;;;;;;4877753;29;20184;-91
2022/04/30 08:07:21;;;;;;;32.33;24.70;;;12.70;99.90;;;;;;4890126;29;20447;-90
2022/04/30 08:09:57;;;;;;;32.77;25.83;;;12.40;99.90;;;;;;4887094;29;20192;-90
2022/04/30 08:12:23;;;;;;;27.47;24.00;;;12.20;99.90;;;;;;4883119;29;20475;-91
2022/04/30 08:14:52;;;;;;;29.07;23.33;;;12.20;99.90;;;;;;4892515;29;20481;-91
2022/04/30 08:17:18;;;;;;;27.27;23.50;;;12.30;99.90;;;;;;4894397;29;20188;-91
2022/04/30 08:19:48;;;;;;;25.60;22.20;;;12.50;99.90;;;;;;4883124;29;20474;-91
2022/04/30 08:22:20;;;;;;;24.60;21.93;;;12.60;99.90;;;;;;4885832;29;20180;-90
2022/04/30 08:24:46;;;;;;;23.13;19.30;;;12.60;99.90;;;;;;4886827;29;20440;-91
2022/04/30 08:27:12;;;;;;;25.70;20.83;;;12.50;99.90;;;;;;4887047;29;20460;-94
2022/04/30 08:29:39;;;;;;;25.70;21.73;;;12.40;99.90;;;;;;4900555;29;20538;-92
2022/04/30 08:32:05;;;;;;;26.20;23.00;;;12.40;99.90;;;;;;4886486;29;20474;-92
2022/04/30 08:34:32;;;;;;;22.93;19.57;;;12.60;99.90;;;;;;4891383;29;20448;-93
2022/04/30 08:36:57;;;;;;;27.87;21.70;;;12.60;99.90;;;;;;4887138;29;21127;-91
2022/04/30 08:39:40;;;;;;;22.57;20.17;;;12.30;99.90;;;;;;4896612;29;20436;-96
2022/04/30 08:42:09;;;;;;;22.40;19.90;;;12.00;99.90;;;;;;4899181;29;20180;-94
2022/04/30 08:44:37;;;;;;;23.67;21.17;;;12.00;99.90;;;;;;4902346;29;20611;-93
2022/04/30 08:47:06;;;;;;;27.53;24.23;;;11.70;99.90;;;;;;4893192;29;20800;-96
2022/04/30 08:49:33;;;;;;;22.90;20.43;;;11.60;99.90;;;;;;4897361;29;21487;-94
2022/04/30 08:51:58;;;;;;;23.83;21.40;;;11.50;99.90;;;;;;4896502;29;20444;-91
2022/04/30 08:54:27;;;;;;;25.97;22.60;;;11.50;99.90;;;;;;4905595;29;20455;-91
2022/04/30 08:57:01;;;;;;;23.63;21.20;;;11.50;99.90;;;;;;4909764;29;20300;-93
2022/04/30 08:59:31;;;;;;;20.63;18.43;;;11.50;99.90;;;;;;4898249;29;20459;-93
2022/04/30 09:02:02;;;;;;;22.53;19.70;;;11.60;99.90;;;;;;4894846;29;20571;-92
2022/04/30 09:04:43;;;;;;;21.67;18.87;;;11.50;99.90;;;;;;4889910;29;20489;-93
2022/04/30 09:07:20;;;;;;;21.37;18.70;;;11.80;99.90;;;;;;4876938;29;20452;-90
2022/04/30 09:09:56;;;;;;;20.53;17.83;;;11.60;99.90;;;;;;4889062;29;20439;-92
2022/04/30 09:12:27;;;;;;;18.83;16.90;;;11.60;99.90;;;;;;4884897;29;20642;-93
2022/04/30 09:14:59;;;;;;;18.33;16.63;;;11.60;99.90;;;;;;4880103;29;20511;-93
2022/04/30 09:17:27;;;;;;;19.60;17.50;;;11.80;99.90;;;;;;4884248;29;20555;-90
2022/04/30 09:20:01;;;;;;;18.43;16.53;;;11.90;99.90;;;;;;4891605;29;20440;-92
2022/04/30 09:22:43;;;;;;;18.67;16.63;;;11.70;99.90;;;;;;4884198;29;20477;-92
2022/04/30 09:25:16;;;;;;;19.37;17.27;;;11.60;99.90;;;;;;4885910;29;20464;-91
2022/04/30 09:28:05;;;;;;;22.17;19.87;;;11.70;99.90;;;;;;4908656;29;21617;-95
2022/04/30 09:30:32;;;;;;;19.57;17.43;;;11.90;99.90;;;;;;4894444;29;21111;-96
2022/04/30 09:33:08;;;;;;;17.97;16.17;;;12.10;99.90;;;;;;4915247;29;20465;-94
2022/04/30 09:38:26;;;;;;;16.13;14.17;;;12.60;99.90;;;;;;4886433;29;20483;-96
2022/04/30 09:40:59;;;;;;;15.77;14.27;;;12.50;99.90;;;;;;4905969;29;20532;-95
2022/04/30 10:17:33;;;;;;;14.30;13.00;;;11.60;99.90;;;;;;3161522;27;20559;-94
2022/04/30 10:20:20;;;;;;;14.50;13.17;;;11.50;99.90;;;;;;4880692;29;20461;-96
2022/04/30 10:22:58;;;;;;;15.10;13.80;;;11.60;99.90;;;;;;4882529;29;20510;-96
2022/04/30 10:26:15;;;;;;;15.53;12.80;;;11.80;99.90;;;;;;4946842;23;20493;-96
2022/04/30 10:28:56;;;;;;;12.90;11.70;;;12.00;99.90;;;;;;4868674;29;20458;-92
2022/04/30 10:31:25;;;;;;;11.90;10.90;;;12.50;99.90;;;;;;4884130;29;20791;-95
2022/04/30 10:33:51;;;;;;;13.20;11.90;;;12.10;99.90;;;;;;4949965;23;20551;-85
2022/04/30 10:36:18;;;;;;;16.97;14.77;;;11.90;99.90;;;;;;4907633;29;20508;-88
2022/04/30 10:39:09;;;;;;;10.63;9.63;;;12.00;99.90;;;;;;4916837;29;20506;-93
2022/04/30 10:41:45;;;;;;;9.13;8.33;;;12.20;99.90;;;;;;4898416;29;20837;-91
2022/04/30 10:47:14;;;;;;;10.63;9.63;;;12.30;99.90;;;;;;4836883;29;20510;-91
2022/04/30 10:49:40;;;;;;;19.50;17.60;;;12.50;99.90;;;;;;4843358;29;20451;-93
2022/04/30 10:52:08;;;;;;;17.60;15.90;;;12.60;99.90;;;;;;4845668;29;20455;-94
2022/04/30 10:54:35;;;;;;;16.13;14.63;;;12.70;99.90;;;;;;4854544;29;20435;-96
2022/04/30 10:57:13;;;;;;;10.97;9.97;;;12.80;99.90;;;;;;4856147;29;20489;-95
2022/04/30 10:59:39;;;;;;;10.87;9.87;;;13.10;99.90;;;;;;4853111;29;20442;-94
2022/04/30 11:02:05;;;;;;;11.47;10.47;;;13.60;99.90;;;;;;4870114;29;20541;-94
2022/04/30 11:04:30;;;;;;;12.40;11.40;;;14.00;99.90;;;;;;4857603;29;20285;-94
2022/04/30 11:06:58;;;;;;;11.70;10.70;;;14.40;99.90;;;;;;4868047;29;20199;-94
2022/04/30 11:09:24;;;;;;;11.33;10.43;;;15.10;99.90;;;;;;4851879;29;20182;-95
2022/04/30 11:11:50;;;;;;;10.33;9.43;;;15.60;99.90;;;;;;4855429;29;20443;-94
2022/04/30 11:14:17;;;;;;;11.43;10.43;;;15.50;99.90;;;;;;4856293;29;20646;-93
2022/04/30 11:16:45;;;;;;;10.10;9.30;;;15.30;99.90;;;;;;4869453;29;21065;-94
2022/04/30 11:19:17;;;;;;;10.53;9.53;;;15.30;99.90;;;;;;4853090;29;20503;-96
2022/04/30 11:21:56;;;;;;;10.37;9.47;;;15.30;99.90;;;;;;4853242;29;21775;-94
2022/04/30 11:24:31;;;;;;;10.93;10.03;;;15.00;99.90;;;;;;4869348;29;20538;-95
2022/04/30 11:26:59;;;;;;;11.40;10.30;;;15.20;99.90;;;;;;4854410;29;20897;-95
2022/04/30 11:29:27;;;;;;;10.93;9.93;;;15.40;99.90;;;;;;4856162;29;20451;-96
2022/04/30 11:32:00;;;;;;;11.00;10.07;;;15.40;99.90;;;;;;4860035;29;20481;-95
2022/04/30 16:27:05;;;;;;;7.93;7.17;;;16.10;96.20;;;;;;4922459;23;20954;-89
2022/04/30 16:29:38;;;;;;;8.23;7.63;;;16.00;94.60;;;;;;4846373;29;20493;-91
2022/04/30 16:32:05;;;;;;;7.27;6.70;;;15.20;95.50;;;;;;4861048;29;20454;-88
2022/04/30 16:34:31;;;;;;;8.47;7.77;;;16.00;97.10;;;;;;4856193;29;20947;-90
2022/04/30 16:36:59;;;;;;;10.80;9.97;;;18.30;94.40;;;;;;4853724;29;20194;-95
2022/04/30 16:39:26;;;;;;;9.80;9.00;;;16.50;93.90;;;;;;4869443;29;20209;-93
2022/04/30 16:41:52;;;;;;;11.20;10.30;;;14.50;98.30;;;;;;4866618;29;20449;-92
2022/04/30 16:44:18;;;;;;;11.07;10.07;;;14.10;99.90;;;;;;4894453;29;20210;-90
2022/04/30 16:46:48;;;;;;;9.93;9.13;;;13.60;99.90;;;;;;4868402;29;21032;-95
2022/04/30 16:49:18;;;;;;;14.30;13.00;;;13.30;99.90;;;;;;4860425;29;20237;-93
2022/04/30 16:57:15;;;;;;;12.70;11.50;;;12.90;99.90;;;;;;4876784;29;20548;-95
2022/04/30 17:00:11;;;;;;;13.13;11.93;;;12.40;99.90;;;;;;4864577;29;20442;-94
2022/04/30 17:02:40;;;;;;;12.20;11.10;;;12.30;99.90;;;;;;4857868;29;20522;-84
2022/04/30 17:05:13;;;;;;;9.93;9.00;;;12.10;99.90;;;;;;4850482;29;20487;-84
2022/04/30 17:07:41;;;;;;;10.33;9.30;;;12.00;99.90;;;;;;4898292;29;20553;-87
2022/04/30 17:10:08;;;;;;;11.60;10.50;;;12.10;99.90;;;;;;4897187;29;20462;-93
2022/04/30 17:12:35;;;;;;;11.80;10.70;;;11.90;99.90;;;;;;4864001;29;20875;-95
2022/04/30 17:15:04;;;;;;;12.40;11.20;;;11.70;99.90;;;;;;4872832;29;20438;-93
2022/04/30 17:17:32;;;;;;;13.10;11.90;;;11.60;99.90;;;;;;4869304;29;20864;-96
2022/04/30 17:19:58;;;;;;;11.67;10.57;;;11.70;99.90;;;;;;4883274;29;20484;-96
2022/04/30 17:22:24;;;;;;;13.00;11.70;;;11.70;99.90;;;;;;4861559;29;20503;-91
2022/04/30 17:24:50;;;;;;;12.07;10.87;;;11.60;99.90;;;;;;4865828;29;20599;-96
2022/04/30 17:27:19;;;;;;;12.93;11.73;;;11.60;99.90;;;;;;4864220;29;20212;-94
2022/04/30 17:29:45;;;;;;;12.70;11.50;;;11.60;99.90;;;;;;4858655;29;20226;-90
2022/04/30 17:42:59;;;;;;;14.80;13.30;;;11.80;99.90;;;;;;4839194;29;20548;-91
2022/04/30 17:45:26;;;;;;;14.40;13.10;;;11.60;99.90;;;;;;4842975;29;20870;-93
2022/04/30 17:47:52;;;;;;;15.43;13.93;;;11.40;99.90;;;;;;4852344;29;20510;-92
2022/04/30 17:50:19;;;;;;;13.90;12.60;;;11.20;99.90;;;;;;4833410;29;20476;-91
2022/04/30 17:52:44;;;;;;;14.73;13.40;;;11.10;99.90;;;;;;4852941;29;20457;-95
2022/04/30 17:55:10;;;;;;;17.17;15.50;;;11.10;99.90;;;;;;4844807;29;21079;-92
2022/04/30 17:57:37;;;;;;;13.23;11.93;;;11.00;99.90;;;;;;4850567;29;22321;-93
2022/04/30 18:00:08;;;;;;;14.70;13.17;;;10.90;99.90;;;;;;4864887;29;20186;-92
2022/04/30 18:02:36;;;;;;;14.13;12.73;;;10.80;99.90;;;;;;4860679;29;20906;-92
2022/04/30 18:05:08;;;;;;;14.60;13.13;;;10.60;99.90;;;;;;4847903;29;20475;-91
2022/04/30 18:07:37;;;;;;;15.00;13.50;;;10.50;99.90;;;;;;4837135;29;20770;-92
2022/04/30 18:10:05;;;;;;;15.33;13.07;;;10.40;99.90;;;;;;4851649;29;20467;-91
2022/04/30 18:12:31;;;;;;;13.83;12.40;;;10.50;99.90;;;;;;4855908;29;20455;-92
2022/04/30 18:15:01;;;;;;;14.93;13.40;;;10.50;99.90;;;;;;4847506;29;20480;-91
2022/04/30 18:17:39;;;;;;;14.83;13.33;;;10.50;99.90;;;;;;4842103;29;20768;-91
2022/04/30 18:20:10;;;;;;;14.70;12.73;;;10.50;99.90;;;;;;4842076;29;20455;-93
2022/04/30 18:22:37;;;;;;;52.40;46.70;;;10.30;99.90;;;;;;4841648;29;20608;-91
2022/04/30 18:25:05;;;;;;;17.30;15.53;;;10.50;99.90;;;;;;4835873;29;20486;-93
2022/04/30 18:27:35;;;;;;;19.50;17.60;;;10.50;99.90;;;;;;4843782;29;20551;-93
2022/04/30 18:30:14;;;;;;;19.40;17.70;;;10.60;99.90;;;;;;4847291;29;20463;-92
2022/04/30 18:32:39;;;;;;;22.37;20.27;;;10.50;99.90;;;;;;4870139;29;20450;-94
2022/04/30 18:35:06;;;;;;;17.17;15.57;;;10.30;99.90;;;;;;4853233;29;20458;-92
2022/04/30 18:37:32;;;;;;;19.07;17.30;;;10.20;99.90;;;;;;4855043;29;20228;-91
2022/04/30 18:39:58;;;;;;;19.93;18.10;;;10.20;99.90;;;;;;4833283;29;20594;-93
2022/04/30 18:42:25;;;;;;;16.90;15.10;;;10.00;99.90;;;;;;4815193;29;1139794;-93
2022/04/30 18:44:51;;;;;;;20.40;17.63;;;10.10;99.90;;;;;;4853766;29;20478;-91
2022/04/30 18:47:21;;;;;;;30.73;27.03;;;10.10;99.90;;;;;;4862686;29;20444;-91
2022/04/30 18:49:50;;;;;;;41.57;33.40;;;10.10;99.90;;;;;;4836775;29;20438;-92
2022/04/30 18:52:18;;;;;;;26.90;23.70;;;10.00;99.90;;;;;;4858089;29;20526;-91
2022/04/30 19:03:06;;;;;;;17.53;15.73;;;10.00;99.90;;;;;;4851351;29;20482;-93
2022/04/30 19:05:32;;;;;;;20.20;18.20;;;10.10;99.90;;;;;;4853829;29;20583;-93
2022/04/30 19:08:00;;;;;;;18.97;16.97;;;10.10;99.90;;;;;;4864309;29;20549;-91
2022/04/30 19:10:37;;;;;;;19.40;17.40;;;10.00;99.90;;;;;;4858897;29;20489;-93
2022/04/30 19:13:43;;;;;;;23.43;21.07;;;10.00;99.90;;;;;;4858510;29;20266;-94
2022/04/30 19:16:08;;;;;;;22.57;19.87;;;9.90;99.90;;;;;;4860225;29;20479;-93
2022/04/30 19:18:34;;;;;;;31.60;26.47;;;10.00;99.90;;;;;;4854385;29;20447;-93
2022/04/30 19:21:00;;;;;;;24.60;22.03;;;9.80;99.90;;;;;;4864932;29;20220;-92
2022/04/30 19:23:25;;;;;;;21.63;19.33;;;9.70;99.90;;;;;;4850572;29;20221;-94
2022/04/30 19:25:51;;;;;;;26.43;23.63;;;9.70;99.90;;;;;;4866003;29;20198;-94
2022/04/30 19:28:21;;;;;;;29.93;26.90;;;9.60;99.90;;;;;;4867718;29;20214;-91
2022/04/30 19:30:48;;;;;;;32.93;29.53;;;9.60;99.90;;;;;;4841440;29;20462;-90